Warning: Javascript must be enabled to use all the features on this page!


Page Loading - Please Wait...

Click to hideNews Bulletins

Peak Streamflow for the Nation

USGS 04227000 CANASERAGA CREEK AT SHAKERS CROSSING NY

Livingston County, New York
Hydrologic Unit Code 04130002
Latitude  42°44'09.8", Longitude  77°50'29.1" NAD83
Drainage area 335  square miles
Contributing drainage area 335  square miles
Gage datum 544.97 feet above NAVD88
Output formats
Table
Graph
Tab-separated file
peakfq (watstore) format
Reselect output format
Water
Year
Date Gage
Height
(feet)
Stream-
flow
(cfs)
1916 1916-05-17 28.921,3  
1917 1917-03-12 25.103  
1918 1918-02-21 27.903  
1919 1919-05-23 27.203  
1920 1920-07-24 25.203  
1921 1921-02-17 23.373  
1922 1922-02-24 25.313  
1959 1959-04-02 9.562,6 2,900
1960 1960-04-01 11.99 4,350
1961 1961-04-26 12.07 4,430
1962 1962-04-07 9.051,2 1,600
1963 1963-03-18 10.692 3,170
1964 1964-03-05 10.021,2 2,670
1965 1965-04-07 8.611,2 1,700
1966 1966-02-14 10.281 1,850
1967 1967-09-29 9.45 2,340
1968 1968-01-30 10.401 2,500
1969 1969-04-19 10.16 2,790
1970 1970-02-03 10.361 2,6002
1972 1972-06-23   11,2002,7,9
1975 1975-02-24 11.07 3,490
1976 1976-03-04 13.33 5,270
1977 1977-09-24 11.882 4,020
1978 1978-04-05 11.77 3,890
1979 1979-03-05 13.22 5,220
1980 1979-12-25 11.37 3,620
1981 1981-02-20 10.45 2,880
1982 1982-03-13 12.931 4,4002
1983 1983-05-03 8.382 1,950
1984 1984-05-29 11.83 4,060
1985 1985-02-23 11.131,2 3,6002
1986 1986-01-20 11.27 4,030
1987 1987-04-05 11.70 4,400
1988 1988-04-04 10.41 3,410
1989 1989-06-21 12.521 4,720
1990 1990-02-16 12.17 4,820
1991 1990-12-30 12.021 4,270
1992 1992-03-27 10.37 3,220
1993 1993-04-02 11.642 4,260
1994 1994-03-24 10.682 3,450
1995 1995-01-20 10.42 3,260
1996 1996-01-19 13.01 5,510
1997 1997-02-27 11.02 3,740
1998 1998-01-09 12.77 5,280
1999 1999-01-24 11.88 4,460
2000 2000-02-25 10.34 3,170
2001 2001-04-09 10.98 3,710
2002 2002-02-01 10.60 3,380
2003 2003-08-10 11.432 3,650
2004 2004-04-14 10.78 3,250
2005 2005-04-03 12.12 4,680
2006 2005-11-30 10.64 3,340
2007 2007-03-15 12.14 4,220
2008 2008-02-06 10.71 2,820
2009 2008-12-27 11.262 3,240
2010 2010-01-25 10.50 2,960
2011 2010-12-01 11.31 3,490
2012 2011-11-15 9.37 2,360
2013 2012-10-30 11.42 3,380
2014 2014-05-16 11.34 3,590
2015 2015-09-30 8.252 1,750
2016 2016-02-26 8.042 1,560
2017 2017-04-07 11.042 2,770
2018 2018-01-13 10.992 2,680
2019 2019-06-21 10.892 3,200
2020 2020-05-01 9.312 2,210
?
  Peak Gage-Height Qualification Codes.
?
  Peak Streamflow Qualification Codes.